createdAt,value
2018-02-11T00:00:57.439Z,989.51
2018-02-11T00:01:57.455Z,989.51
2018-02-11T00:02:57.496Z,989.42
2018-02-11T00:03:57.533Z,989.38
2018-02-11T00:04:57.647Z,989.49
2018-02-11T00:05:57.574Z,989.47
2018-02-11T00:06:57.600Z,989.45
2018-02-11T00:07:57.645Z,989.46
2018-02-11T00:08:57.661Z,989.53
2018-02-11T00:09:57.693Z,989.47
2018-02-11T00:10:57.743Z,989.41
2018-02-11T00:11:57.756Z,989.43
2018-02-11T00:12:57.776Z,989.43
2018-02-11T00:13:57.805Z,989.34
2018-02-11T00:14:57.848Z,989.41
2018-02-11T00:15:57.866Z,989.34
2018-02-11T00:16:57.895Z,989.36
2018-02-11T00:17:57.927Z,989.35
2018-02-11T00:18:57.958Z,989.29
2018-02-11T00:19:57.987Z,989.32
2018-02-11T00:20:58.011Z,989.31
2018-02-11T00:21:58.097Z,989.26
2018-02-11T00:22:58.072Z,989.24
2018-02-11T00:23:58.103Z,989.21
2018-02-11T00:24:58.189Z,989.19
2018-02-11T00:25:58.186Z,989.19
2018-02-11T00:26:58.188Z,989.19
2018-02-11T00:27:58.218Z,989.14
2018-02-11T00:28:58.247Z,989.13
2018-02-11T00:29:58.291Z,989.14
2018-02-11T00:30:58.308Z,989.09
2018-02-11T00:31:58.339Z,989.07
2018-02-11T00:33:58.397Z,989.09
2018-02-11T00:34:58.423Z,989.08
2018-02-11T00:35:58.457Z,989.08
2018-02-11T00:36:58.480Z,989.11
2018-02-11T00:37:58.511Z,989.11
2018-02-11T00:38:58.593Z,989.13
2018-02-11T00:39:58.569Z,989.10
2018-02-11T00:40:58.599Z,989.11
2018-02-11T00:41:58.629Z,989.11
2018-02-11T00:42:58.654Z,989.10
2018-02-11T00:43:58.698Z,989.03
2018-02-11T00:44:58.719Z,989.05
2018-02-11T00:45:58.755Z,989.06
2018-02-11T00:46:58.773Z,989.03
2018-02-11T00:47:58.802Z,989.05
2018-02-11T00:48:58.830Z,988.93
2018-02-11T00:49:58.860Z,988.97
2018-02-11T00:50:58.890Z,988.96
2018-02-11T00:51:58.921Z,989.01
2018-02-11T00:52:58.948Z,988.99
2018-02-11T00:53:58.975Z,988.97
2018-02-11T00:54:59.004Z,988.94
2018-02-11T00:56:59.063Z,988.89
2018-02-11T00:57:59.189Z,988.88
2018-02-11T00:58:59.122Z,988.88
2018-02-11T00:59:59.152Z,988.88
2018-02-11T01:00:59.181Z,988.87
2018-02-11T01:01:59.213Z,988.87
2018-02-11T01:02:59.242Z,988.90
2018-02-11T01:03:59.267Z,988.87
2018-02-11T01:04:59.296Z,988.85
2018-02-11T01:05:59.325Z,988.80
2018-02-11T01:06:59.354Z,988.83
2018-02-11T01:07:59.383Z,988.78
2018-02-11T01:08:59.414Z,988.78
2018-02-11T01:09:59.442Z,988.77
2018-02-11T01:10:59.486Z,988.69
2018-02-11T01:11:59.499Z,988.68
2018-02-11T01:12:59.528Z,988.67
2018-02-11T01:13:59.557Z,988.61
2018-02-11T01:14:59.586Z,988.59
2018-02-11T01:15:59.615Z,988.59
2018-02-11T01:16:59.643Z,988.55
2018-02-11T01:17:59.674Z,988.52
2018-02-11T01:18:59.704Z,988.49
2018-02-11T01:19:59.731Z,988.47
2018-02-11T01:20:59.765Z,988.40
2018-02-11T01:22:00.161Z,988.41
2018-02-11T01:22:59.818Z,988.38
2018-02-11T01:23:59.846Z,988.38
2018-02-11T01:24:59.875Z,988.33
2018-02-11T01:25:59.907Z,988.30
2018-02-11T01:26:59.934Z,988.34
2018-02-11T01:27:59.965Z,988.32
2018-02-11T01:28:59.995Z,988.30
2018-02-11T01:30:00.081Z,988.33
2018-02-11T01:31:00.064Z,988.33
2018-02-11T01:32:00.077Z,988.37
2018-02-11T01:33:00.109Z,988.31
2018-02-11T01:34:00.142Z,988.28
2018-02-11T01:35:00.166Z,988.28
2018-02-11T01:36:00.196Z,988.24
2018-02-11T01:37:00.241Z,988.26
2018-02-11T01:38:00.258Z,988.24
2018-02-11T01:39:00.337Z,988.24
2018-02-11T01:40:00.313Z,988.21
2018-02-11T01:41:00.340Z,988.20
2018-02-11T01:42:00.369Z,988.16
2018-02-11T01:43:00.405Z,988.11
2018-02-11T01:44:00.427Z,988.13
2018-02-11T01:45:00.458Z,988.05
2018-02-11T01:46:00.488Z,988.07
2018-02-11T01:47:00.513Z,988.12
2018-02-11T01:48:00.540Z,988.07
2018-02-11T01:49:00.593Z,988.02
2018-02-11T01:50:00.601Z,988.05
2018-02-11T01:51:00.632Z,988.04
2018-02-11T01:52:00.659Z,988.01
2018-02-11T01:53:00.687Z,988.01
2018-02-11T01:54:00.718Z,987.98
2018-02-11T01:55:00.743Z,987.96
2018-02-11T01:56:00.793Z,987.97
2018-02-11T01:57:00.800Z,988.01
2018-02-11T01:58:00.899Z,987.97
2018-02-11T01:59:00.859Z,988.01
2018-02-11T02:00:00.947Z,987.99
2018-02-11T02:01:00.919Z,987.97
2018-02-11T02:02:00.949Z,987.98
2018-02-11T02:03:00.980Z,987.92
2018-02-11T02:04:01.005Z,987.99
2018-02-11T02:05:01.035Z,987.93
2018-02-11T02:06:01.062Z,988.02
2018-02-11T02:07:01.101Z,988.03
2018-02-11T02:08:01.134Z,988.00
2018-02-11T02:09:01.151Z,988.03
2018-02-11T02:10:01.178Z,988.02
2018-02-11T02:11:01.212Z,987.97
2018-02-11T02:12:01.235Z,987.92
2018-02-11T02:13:01.264Z,987.88
2018-02-11T02:14:01.307Z,987.86
2018-02-11T02:15:01.386Z,987.79
2018-02-11T02:16:01.364Z,987.75
2018-02-11T02:17:01.377Z,987.74
2018-02-11T02:18:01.408Z,987.69
2018-02-11T02:19:01.434Z,987.66
2018-02-11T02:20:01.464Z,987.67
2018-02-11T02:21:01.493Z,987.60
2018-02-11T02:22:01.664Z,987.57
2018-02-11T02:23:01.553Z,987.54
2018-02-11T02:24:01.598Z,987.57
2018-02-11T02:25:01.608Z,987.53
2018-02-11T02:26:01.635Z,987.52
2018-02-11T02:27:01.668Z,987.47
2018-02-11T02:28:01.703Z,987.46
2018-02-11T02:29:01.723Z,987.44
2018-02-11T02:30:01.777Z,987.41
2018-02-11T02:31:01.787Z,987.35
2018-02-11T02:32:01.821Z,987.27
2018-02-11T02:33:01.836Z,987.24
2018-02-11T02:34:01.865Z,987.16
2018-02-11T02:35:01.898Z,987.16
2018-02-11T02:36:01.955Z,987.16
2018-02-11T02:37:01.949Z,987.14
2018-02-11T02:38:01.977Z,987.17
2018-02-11T02:39:02.008Z,987.17
2018-02-11T02:40:02.034Z,987.19
2018-02-11T02:41:02.065Z,987.16
2018-02-11T02:42:02.095Z,987.12
2018-02-11T02:43:02.122Z,987.17
2018-02-11T02:44:02.150Z,987.13
2018-02-11T02:45:02.178Z,987.12
2018-02-11T02:46:02.205Z,987.08
2018-02-11T02:47:02.240Z,987.08
2018-02-11T02:48:02.265Z,987.08
2018-02-11T02:49:02.348Z,987.03
2018-02-11T02:50:02.325Z,987.03
2018-02-11T02:51:02.364Z,986.99
2018-02-11T02:52:02.375Z,987.00
2018-02-11T02:53:02.406Z,986.97
2018-02-11T02:54:02.435Z,987.03
2018-02-11T02:55:02.466Z,987.01
2018-02-11T02:56:02.501Z,986.98
2018-02-11T02:57:02.520Z,986.99
2018-02-11T02:58:02.547Z,986.96
2018-02-11T02:59:02.578Z,986.98
2018-02-11T03:00:02.620Z,986.97
2018-02-11T03:01:02.637Z,986.93
2018-02-11T03:02:02.675Z,986.89
2018-02-11T03:03:02.690Z,986.88
2018-02-11T03:04:02.723Z,986.82
2018-02-11T03:05:02.747Z,986.79
2018-02-11T03:06:02.778Z,986.81
2018-02-11T03:07:02.805Z,986.70
2018-02-11T03:08:02.883Z,986.65
2018-02-11T03:09:02.861Z,986.60
2018-02-11T03:10:02.907Z,986.54
2018-02-11T03:11:02.918Z,986.44
2018-02-11T03:12:02.950Z,986.47
2018-02-11T03:13:02.979Z,986.43
2018-02-11T03:14:03.013Z,986.47
2018-02-11T03:15:03.056Z,986.45
2018-02-11T03:16:03.062Z,986.45
2018-02-11T03:17:03.091Z,986.45
2018-02-11T03:18:03.118Z,986.49
2018-02-11T03:19:03.148Z,986.45
2018-02-11T03:20:03.175Z,986.45
2018-02-11T03:21:03.204Z,986.40
2018-02-11T03:22:03.231Z,986.40
2018-02-11T03:23:03.262Z,986.37
2018-02-11T03:24:03.289Z,986.33
2018-02-11T03:25:03.321Z,986.35
2018-02-11T03:26:03.350Z,986.31
2018-02-11T03:27:03.375Z,986.30
2018-02-11T03:28:03.403Z,986.32
2018-02-11T03:29:03.432Z,986.29
2018-02-11T03:30:03.464Z,986.23
2018-02-11T03:31:03.488Z,986.22
2018-02-11T03:32:03.521Z,986.23
2018-02-11T03:33:03.552Z,986.19
2018-02-11T03:34:03.576Z,986.21
2018-02-11T03:35:03.604Z,986.17
2018-02-11T03:36:03.632Z,986.14
2018-02-11T03:37:03.661Z,986.09
2018-02-11T03:38:03.691Z,986.13
2018-02-11T03:39:03.721Z,986.07
2018-02-11T03:40:03.747Z,986.03
2018-02-11T03:41:03.778Z,986.03
2018-02-11T03:42:03.806Z,986.00
2018-02-11T03:43:03.832Z,985.99
2018-02-11T03:44:03.929Z,986.01
2018-02-11T03:45:03.902Z,986.00
2018-02-11T03:46:03.922Z,985.89
2018-02-11T03:47:03.961Z,985.94
2018-02-11T03:48:03.976Z,985.88
2018-02-11T03:49:04.016Z,985.86
2018-02-11T03:50:04.053Z,985.87
2018-02-11T03:51:04.217Z,985.87
2018-02-11T03:52:04.106Z,985.87
2018-02-11T03:53:04.122Z,985.88
2018-02-11T03:54:04.154Z,985.86
2018-02-11T03:55:04.520Z,985.90
2018-02-11T03:56:04.208Z,985.77
2018-02-11T03:57:04.237Z,985.82
2018-02-11T03:58:04.263Z,985.85
2018-02-11T03:59:04.296Z,985.73
2018-02-11T04:00:04.324Z,985.83
2018-02-11T04:01:04.367Z,985.80
2018-02-11T04:02:04.585Z,985.69
2018-02-11T04:03:04.409Z,985.70
2018-02-11T04:04:04.436Z,985.71
2018-02-11T04:05:04.475Z,985.68
2018-02-11T04:06:04.495Z,985.69
2018-02-11T04:07:04.532Z,985.67
2018-02-11T04:08:04.947Z,985.65
2018-02-11T04:09:04.585Z,985.59
2018-02-11T04:10:04.619Z,985.58
2018-02-11T04:11:04.640Z,985.57
2018-02-11T04:12:04.667Z,985.53
2018-02-11T04:13:04.699Z,985.55
2018-02-11T04:14:04.726Z,985.55
2018-02-11T04:15:04.755Z,985.50
2018-02-11T04:16:04.785Z,985.53
2018-02-11T04:17:04.818Z,985.56
2018-02-11T04:18:04.844Z,985.52
2018-02-11T04:19:04.871Z,985.52
2018-02-11T04:20:04.909Z,985.49
2018-02-11T04:21:04.982Z,985.45
2018-02-11T04:22:04.960Z,985.41
2018-02-11T04:23:04.987Z,985.42
2018-02-11T04:24:05.022Z,985.36
2018-02-11T04:25:05.053Z,985.34
2018-02-11T04:26:05.078Z,985.29
2018-02-11T04:27:05.103Z,985.30
2018-02-11T04:28:05.137Z,985.25
2018-02-11T04:29:05.160Z,985.25
2018-02-11T04:30:05.189Z,985.26
2018-02-11T04:31:05.219Z,985.23
2018-02-11T04:32:05.249Z,985.21
2018-02-11T04:33:05.291Z,985.20
2018-02-11T04:34:05.322Z,985.16
2018-02-11T04:35:05.334Z,985.09
2018-02-11T04:36:05.380Z,985.10
2018-02-11T04:37:05.399Z,985.12
2018-02-11T04:38:05.420Z,985.11
2018-02-11T04:39:05.451Z,985.07
2018-02-11T04:40:05.480Z,985.06
2018-02-11T04:41:05.516Z,984.97
2018-02-11T04:42:05.539Z,984.98
2018-02-11T04:43:05.566Z,984.93
2018-02-11T04:44:05.694Z,984.96
2018-02-11T04:45:05.624Z,984.93
2018-02-11T04:46:05.655Z,984.88
2018-02-11T04:47:05.682Z,984.97
2018-02-11T04:48:05.709Z,984.95
2018-02-11T04:49:05.741Z,984.96
2018-02-11T04:50:05.769Z,984.94
2018-02-11T04:51:05.810Z,984.88
2018-02-11T04:52:05.831Z,984.80
2018-02-11T04:53:05.860Z,984.82
2018-02-11T04:54:05.890Z,984.75
2018-02-11T04:55:05.932Z,984.78
2018-02-11T04:56:05.943Z,984.77
2018-02-11T04:57:05.972Z,984.71
2018-02-11T04:58:06.001Z,984.69
2018-02-11T04:59:06.031Z,984.62
2018-02-11T05:00:06.062Z,984.56
2018-02-11T05:01:06.108Z,984.56
2018-02-11T05:02:06.121Z,984.53
2018-02-11T05:03:06.147Z,984.46
2018-02-11T05:04:06.176Z,984.36
2018-02-11T05:05:06.205Z,984.32
2018-02-11T05:06:06.235Z,984.31
2018-02-11T05:07:06.274Z,984.30
2018-02-11T05:08:06.293Z,984.31
2018-02-11T05:09:06.323Z,984.32
2018-02-11T05:10:06.358Z,984.33
2018-02-11T05:11:06.421Z,984.25
2018-02-11T05:12:06.408Z,984.23
2018-02-11T05:13:06.437Z,984.24
2018-02-11T05:14:06.470Z,984.25
2018-02-11T05:15:06.508Z,984.25
2018-02-11T05:16:06.522Z,984.27
2018-02-11T05:17:06.554Z,984.18
2018-02-11T05:18:06.583Z,984.12
2018-02-11T05:19:06.613Z,984.10
2018-02-11T05:20:06.642Z,984.15
2018-02-11T05:21:06.669Z,984.13
2018-02-11T05:22:06.698Z,984.11
2018-02-11T05:23:06.727Z,984.11
2018-02-11T05:24:06.758Z,984.11
2018-02-11T05:25:06.785Z,984.16
2018-02-11T05:26:06.814Z,984.17
2018-02-11T05:27:06.849Z,984.19
2018-02-11T05:28:06.875Z,984.16
2018-02-11T05:29:06.905Z,984.12
2018-02-11T05:30:06.996Z,984.12
2018-02-11T05:31:06.961Z,984.13
2018-02-11T05:32:06.987Z,984.09
2018-02-11T05:34:07.045Z,984.02
2018-02-11T05:35:07.074Z,983.94
2018-02-11T05:36:07.104Z,984.01
2018-02-11T05:37:07.156Z,983.94
2018-02-11T05:38:07.161Z,983.93
2018-02-11T05:39:07.191Z,983.93
2018-02-11T05:40:07.223Z,983.82
2018-02-11T05:41:07.250Z,983.88
2018-02-11T05:42:07.279Z,983.85
2018-02-11T05:43:07.307Z,983.85
2018-02-11T05:44:07.337Z,983.85
2018-02-11T05:45:07.368Z,983.89
2018-02-11T05:46:07.398Z,983.79
2018-02-11T05:47:07.423Z,983.81
2018-02-11T05:48:07.451Z,983.77
2018-02-11T05:49:07.481Z,983.80
2018-02-11T05:50:07.511Z,983.79
2018-02-11T05:51:07.540Z,983.74
2018-02-11T05:52:07.568Z,983.75
2018-02-11T05:53:07.598Z,983.71
2018-02-11T05:54:07.834Z,983.69
2018-02-11T05:55:07.658Z,983.59
2018-02-11T05:56:07.684Z,983.57
2018-02-11T05:57:07.713Z,983.47
2018-02-11T05:58:07.761Z,983.45
2018-02-11T05:59:07.775Z,983.40
2018-02-11T06:00:07.799Z,983.35
2018-02-11T06:01:07.923Z,983.36
2018-02-11T06:02:07.858Z,983.33
2018-02-11T06:03:07.893Z,983.38
2018-02-11T06:04:07.927Z,983.30
2018-02-11T06:05:07.949Z,983.27
2018-02-11T06:06:07.984Z,983.26
2018-02-11T06:07:08.002Z,983.24
2018-02-11T06:08:08.031Z,983.27
2018-02-11T06:09:08.061Z,983.24
2018-02-11T06:10:08.090Z,983.16
2018-02-11T06:11:08.121Z,983.17
2018-02-11T06:12:08.149Z,983.19
2018-02-11T06:13:08.177Z,983.16
2018-02-11T06:14:08.206Z,983.19
2018-02-11T06:15:08.232Z,983.12
2018-02-11T06:16:08.271Z,983.10
2018-02-11T06:17:08.293Z,983.10
2018-02-11T06:18:08.321Z,983.08
2018-02-11T06:19:08.350Z,983.05
2018-02-11T06:20:08.381Z,982.96
2018-02-11T06:21:08.411Z,982.98
2018-02-11T06:22:08.453Z,982.91
2018-02-11T06:23:08.588Z,982.93
2018-02-11T06:24:08.498Z,982.91
2018-02-11T06:25:08.527Z,982.93
2018-02-11T06:26:08.562Z,982.92
2018-02-11T06:27:08.582Z,982.91
2018-02-11T06:28:08.611Z,982.92
2018-02-11T06:29:08.643Z,982.92
2018-02-11T06:30:08.675Z,982.91
2018-02-11T06:31:08.698Z,982.87
2018-02-11T06:32:08.726Z,982.86
2018-02-11T06:33:08.769Z,982.88
2018-02-11T06:34:08.784Z,982.90
2018-02-11T06:35:08.818Z,982.88
2018-02-11T06:36:08.860Z,982.82
2018-02-11T06:37:08.874Z,982.79
2018-02-11T06:38:08.948Z,982.84
2018-02-11T06:39:08.947Z,982.77
2018-02-11T06:40:09.029Z,982.79
2018-02-11T06:41:08.988Z,982.83
2018-02-11T06:42:09.016Z,982.80
2018-02-11T06:43:09.043Z,982.84
2018-02-11T06:44:09.074Z,982.78
2018-02-11T06:45:09.104Z,982.76
2018-02-11T06:46:09.134Z,982.78
2018-02-11T06:47:09.167Z,982.76
2018-02-11T06:48:09.189Z,982.85
2018-02-11T06:49:09.217Z,982.70
2018-02-11T06:50:09.249Z,982.70
2018-02-11T06:51:09.277Z,982.71
2018-02-11T06:52:09.307Z,982.70
2018-02-11T06:53:09.334Z,982.67
2018-02-11T06:54:09.365Z,982.70
2018-02-11T06:55:09.390Z,982.65
2018-02-11T06:56:09.418Z,982.71
2018-02-11T06:57:09.448Z,982.68
2018-02-11T06:58:09.477Z,982.69
2018-02-11T06:59:09.898Z,982.69
2018-02-11T07:00:09.619Z,982.71
2018-02-11T07:01:09.566Z,982.71
2018-02-11T07:02:09.596Z,982.68
2018-02-11T07:03:09.622Z,982.68
2018-02-11T07:04:09.653Z,982.66
2018-02-11T07:05:09.680Z,982.65
2018-02-11T07:06:09.718Z,982.63
2018-02-11T07:07:09.738Z,982.62
2018-02-11T07:08:09.767Z,982.52
2018-02-11T07:09:09.798Z,982.57
2018-02-11T07:10:09.896Z,982.56
2018-02-11T07:11:09.870Z,982.45
2018-02-11T07:12:09.889Z,982.46
2018-02-11T07:13:09.912Z,982.44
2018-02-11T07:14:09.940Z,982.44
2018-02-11T07:15:09.985Z,982.43
2018-02-11T07:16:10.053Z,982.40
2018-02-11T07:17:10.029Z,982.35
2018-02-11T07:18:10.074Z,982.41
2018-02-11T07:19:10.089Z,982.34
2018-02-11T07:20:10.113Z,982.32
2018-02-11T07:21:10.152Z,982.25
2018-02-11T07:22:10.174Z,982.31
2018-02-11T07:23:10.291Z,982.28
2018-02-11T07:24:10.229Z,982.30
2018-02-11T07:25:10.265Z,982.25
2018-02-11T07:26:10.289Z,982.28
2018-02-11T07:27:10.319Z,982.30
2018-02-11T07:28:10.354Z,982.24
2018-02-11T07:29:10.373Z,982.28
2018-02-11T07:30:10.404Z,982.29
2018-02-11T07:31:10.433Z,982.21
2018-02-11T07:32:10.462Z,982.29
2018-02-11T07:33:10.504Z,982.24
2018-02-11T07:34:10.522Z,982.25
2018-02-11T07:35:10.550Z,982.28
2018-02-11T07:36:10.639Z,982.33
2018-02-11T07:37:10.612Z,982.33
2018-02-11T07:38:10.643Z,982.29
2018-02-11T07:39:10.666Z,982.28
2018-02-11T07:40:10.762Z,982.27
2018-02-11T07:41:10.722Z,982.27
2018-02-11T07:42:10.753Z,982.28
2018-02-11T07:43:10.781Z,982.39
2018-02-11T07:44:10.810Z,982.30
2018-02-11T07:45:10.842Z,982.37
2018-02-11T07:46:10.884Z,982.35
2018-02-11T07:47:10.899Z,982.42
2018-02-11T07:48:10.925Z,982.40
2018-02-11T07:49:10.957Z,982.36
2018-02-11T07:50:10.984Z,982.33
2018-02-11T07:51:11.015Z,982.32
2018-02-11T07:52:11.189Z,982.40
2018-02-11T07:53:11.081Z,982.36
2018-02-11T07:54:11.104Z,982.31
2018-02-11T07:55:11.133Z,982.27
2018-02-11T07:56:11.162Z,982.28
2018-02-11T07:57:11.188Z,982.26
2018-02-11T07:58:11.225Z,982.32
2018-02-11T07:59:11.245Z,982.29
2018-02-11T08:00:11.273Z,982.26
2018-02-11T08:01:11.304Z,982.26
2018-02-11T08:02:11.342Z,982.27
2018-02-11T08:03:11.364Z,982.20
2018-02-11T08:04:11.389Z,982.24
2018-02-11T08:05:11.420Z,982.19
2018-02-11T08:06:11.463Z,982.15
2018-02-11T08:07:11.477Z,982.23
2018-02-11T08:08:11.509Z,982.18
2018-02-11T08:09:11.534Z,982.21
2018-02-11T08:10:11.565Z,982.21
2018-02-11T08:11:11.596Z,982.21
2018-02-11T08:12:11.628Z,982.09
2018-02-11T08:13:11.660Z,982.19
2018-02-11T08:14:11.679Z,982.10
2018-02-11T08:15:11.714Z,982.12
2018-02-11T08:16:11.740Z,982.14
2018-02-11T08:17:11.765Z,982.20
2018-02-11T08:18:11.803Z,982.16
2018-02-11T08:19:11.897Z,982.20
2018-02-11T08:20:11.855Z,982.22
2018-02-11T08:21:11.888Z,982.20
2018-02-11T08:22:11.909Z,982.12
2018-02-11T08:23:11.938Z,982.17
2018-02-11T08:24:11.966Z,982.14
2018-02-11T08:25:11.997Z,982.14
2018-02-11T08:26:12.041Z,982.12
2018-02-11T08:27:12.058Z,982.12
2018-02-11T08:28:12.081Z,982.13
2018-02-11T08:29:12.112Z,982.16
2018-02-11T08:30:12.139Z,982.13
2018-02-11T08:31:12.167Z,982.18
2018-02-11T08:32:12.199Z,982.20
2018-02-11T08:33:12.231Z,982.21
2018-02-11T08:34:12.268Z,982.17
2018-02-11T08:35:12.283Z,982.22
2018-02-11T08:36:12.321Z,982.15
2018-02-11T08:37:12.411Z,982.13
2018-02-11T08:38:12.453Z,982.09
2018-02-11T08:39:12.402Z,982.14
2018-02-11T08:40:12.432Z,982.05
2018-02-11T08:41:12.476Z,982.05
2018-02-11T08:42:12.486Z,982.00
2018-02-11T08:43:12.516Z,982.02
2018-02-11T08:44:12.541Z,981.94
2018-02-11T08:45:12.570Z,981.93
2018-02-11T08:46:12.600Z,981.92
2018-02-11T08:47:12.629Z,981.90
2018-02-11T08:48:12.668Z,981.90
2018-02-11T08:49:12.690Z,981.85
2018-02-11T08:50:12.719Z,981.78
2018-02-11T08:51:12.745Z,981.81
2018-02-11T08:52:12.776Z,981.81
2018-02-11T08:53:12.802Z,981.76
2018-02-11T08:54:12.832Z,981.75
2018-02-11T08:55:12.885Z,981.75
2018-02-11T08:56:12.890Z,981.73
2018-02-11T08:57:12.922Z,981.76
2018-02-11T08:58:12.950Z,981.69
2018-02-11T08:59:12.976Z,981.76
2018-02-11T09:00:13.012Z,981.69
2018-02-11T09:01:13.051Z,981.67
2018-02-11T09:02:13.066Z,981.64
2018-02-11T09:03:13.104Z,981.68
2018-02-11T09:04:13.123Z,981.60
2018-02-11T09:05:13.152Z,981.64
2018-02-11T09:06:13.176Z,981.63
2018-02-11T09:07:13.206Z,981.66
2018-02-11T09:08:13.235Z,981.60
2018-02-11T09:09:13.264Z,981.55
2018-02-11T09:10:13.294Z,981.55
2018-02-11T09:11:13.323Z,981.48
2018-02-11T09:12:13.383Z,981.58
2018-02-11T09:13:13.385Z,981.46
2018-02-11T09:14:13.413Z,981.53
2018-02-11T09:15:13.439Z,981.64
2018-02-11T09:16:13.470Z,981.50
2018-02-11T09:17:13.825Z,981.49
2018-02-11T09:18:13.528Z,981.44
2018-02-11T09:19:13.876Z,981.51
2018-02-11T09:20:13.786Z,981.47
2018-02-11T09:21:13.618Z,981.49
2018-02-11T09:22:13.646Z,981.43
2018-02-11T09:23:13.728Z,981.43
2018-02-11T09:24:13.704Z,981.41
2018-02-11T09:25:13.729Z,981.43
2018-02-11T09:26:13.761Z,981.42
2018-02-11T09:27:13.789Z,981.38
2018-02-11T09:28:13.820Z,981.48
2018-02-11T09:30:13.876Z,981.33
2018-02-11T09:31:14.177Z,981.33
2018-02-11T09:32:13.934Z,981.33
2018-02-11T09:33:13.965Z,981.32
2018-02-11T09:34:13.990Z,981.35
2018-02-11T09:35:14.022Z,981.29
2018-02-11T09:36:14.050Z,981.34
2018-02-11T09:37:14.082Z,981.33
2018-02-11T09:38:14.110Z,981.37
2018-02-11T09:39:14.146Z,981.41
2018-02-11T09:40:14.428Z,981.42
2018-02-11T09:41:14.278Z,981.48
2018-02-11T09:42:14.235Z,981.43
2018-02-11T09:43:14.257Z,981.44
2018-02-11T09:44:14.286Z,981.48
2018-02-11T09:45:14.318Z,981.47
2018-02-11T09:46:14.347Z,981.42
2018-02-11T09:47:14.377Z,981.41
2018-02-11T09:48:14.721Z,981.36
2018-02-11T09:49:14.437Z,981.43
2018-02-11T09:50:14.468Z,981.38
2018-02-11T09:51:14.499Z,981.35
2018-02-11T09:52:14.529Z,981.40
2018-02-11T09:53:14.558Z,981.34
2018-02-11T09:54:14.605Z,981.24
2018-02-11T09:55:14.618Z,981.43
2018-02-11T09:56:14.650Z,981.34
2018-02-11T09:57:14.681Z,981.47
2018-02-11T09:58:15.238Z,981.44
2018-02-11T09:59:14.741Z,981.42
2018-02-11T10:00:14.767Z,981.37
2018-02-11T10:01:14.810Z,981.37
2018-02-11T10:02:14.840Z,981.28
2018-02-11T10:03:14.860Z,981.28
2018-02-11T10:04:14.892Z,981.20
2018-02-11T10:05:14.974Z,981.29
2018-02-11T10:06:14.949Z,981.26
2018-02-11T10:07:14.979Z,981.19
2018-02-11T10:08:15.015Z,981.26
2018-02-11T10:09:15.060Z,981.16
2018-02-11T10:10:15.135Z,981.17
2018-02-11T10:11:15.110Z,981.19
2018-02-11T10:12:15.457Z,981.25
2018-02-11T10:13:15.165Z,981.20
2018-02-11T10:14:15.195Z,981.20
2018-02-11T10:15:15.225Z,981.15
2018-02-11T10:16:15.261Z,981.17
2018-02-11T10:17:15.292Z,981.11
2018-02-11T10:18:15.316Z,981.10
2018-02-11T10:19:15.350Z,981.09
2018-02-11T10:20:15.379Z,981.08
2018-02-11T10:21:15.418Z,981.03
2018-02-11T10:22:15.457Z,981.01
2018-02-11T10:23:15.471Z,981.04
2018-02-11T10:24:15.557Z,981.00
2018-02-11T10:25:15.532Z,980.97
2018-02-11T10:26:15.562Z,980.94
2018-02-11T10:27:15.593Z,980.96
2018-02-11T10:28:15.622Z,980.94
2018-02-11T10:29:15.656Z,980.95
2018-02-11T10:30:15.682Z,980.96
2018-02-11T10:31:15.716Z,980.96
2018-02-11T10:32:15.744Z,980.99
2018-02-11T10:33:15.774Z,981.10
2018-02-11T10:34:15.855Z,980.97
2018-02-11T10:35:15.836Z,981.06
2018-02-11T10:36:15.883Z,981.07
2018-02-11T10:37:15.894Z,981.00
2018-02-11T10:38:15.926Z,980.94
2018-02-11T10:39:16.476Z,981.03
2018-02-11T10:40:15.986Z,981.00
2018-02-11T10:41:16.219Z,981.02
2018-02-11T10:43:16.076Z,980.86
2018-02-11T10:44:16.105Z,980.86
2018-02-11T10:45:16.137Z,980.83
2018-02-11T10:46:16.166Z,980.88
2018-02-11T10:47:16.267Z,980.85
2018-02-11T10:49:16.255Z,980.79
2018-02-11T10:50:16.289Z,980.80
2018-02-11T10:51:16.475Z,980.84
2018-02-11T10:52:16.358Z,980.92
2018-02-11T10:53:16.381Z,980.94
2018-02-11T10:54:16.409Z,980.90
2018-02-11T10:55:16.443Z,980.87
2018-02-11T10:56:16.467Z,980.88
2018-02-11T10:57:16.510Z,980.77
2018-02-11T10:58:16.533Z,980.80
2018-02-11T10:59:16.570Z,980.80
2018-02-11T11:00:16.595Z,980.78
2018-02-11T11:01:16.620Z,980.77
2018-02-11T11:02:16.707Z,980.75
2018-02-11T11:03:16.719Z,980.72
2018-02-11T11:04:16.710Z,980.78
2018-02-11T11:05:16.752Z,980.72
2018-02-11T11:06:16.773Z,980.75
2018-02-11T11:07:16.806Z,980.72
2018-02-11T11:08:16.886Z,980.61
2018-02-11T11:09:16.860Z,980.71
2018-02-11T11:10:16.973Z,980.74
2018-02-11T11:11:16.960Z,980.81
2018-02-11T11:12:16.975Z,980.81
2018-02-11T11:13:16.982Z,980.75
2018-02-11T11:14:17.028Z,980.81
2018-02-11T11:15:17.045Z,980.78
2018-02-11T11:16:17.083Z,980.74
2018-02-11T11:17:17.117Z,980.79
2018-02-11T11:18:17.149Z,980.71
2018-02-11T11:19:17.172Z,980.66
2018-02-11T11:20:17.203Z,980.81
2018-02-11T11:21:17.236Z,980.81
2018-02-11T11:22:17.259Z,980.69
2018-02-11T11:23:17.314Z,980.69
2018-02-11T11:24:17.315Z,980.66
2018-02-11T11:25:17.350Z,980.64
2018-02-11T11:26:17.401Z,980.74
2018-02-11T11:27:17.509Z,980.60
2018-02-11T11:28:17.495Z,980.72
2018-02-11T11:29:17.484Z,980.65
2018-02-11T11:30:17.500Z,980.70
2018-02-11T11:31:17.530Z,980.74
2018-02-11T11:32:17.561Z,980.76
2018-02-11T11:33:17.591Z,980.81
2018-02-11T11:34:17.625Z,980.84
2018-02-11T11:35:17.654Z,980.82
2018-02-11T11:36:17.884Z,980.80
2018-02-11T11:37:17.711Z,980.80
2018-02-11T11:38:17.741Z,980.77
2018-02-11T11:39:17.772Z,980.75
2018-02-11T11:41:17.832Z,980.69
2018-02-11T11:42:17.864Z,980.77
2018-02-11T11:43:17.906Z,980.80
2018-02-11T11:44:17.954Z,980.83
2018-02-11T11:45:17.954Z,980.79
2018-02-11T11:46:17.984Z,980.81
2018-02-11T11:47:18.018Z,980.81
2018-02-11T11:48:18.054Z,980.86
2018-02-11T11:49:18.135Z,980.89
2018-02-11T11:50:18.111Z,980.88
2018-02-11T11:51:18.142Z,980.89
2018-02-11T11:52:18.173Z,980.86
2018-02-11T11:53:18.551Z,980.84
2018-02-11T11:54:18.232Z,980.86
2018-02-11T11:55:18.272Z,980.84
2018-02-11T11:56:18.327Z,980.88
2018-02-11T11:57:18.325Z,980.87
2018-02-11T11:58:18.355Z,980.82
2018-02-11T11:59:18.398Z,980.81
2018-02-11T12:00:18.425Z,980.81
2018-02-11T12:01:18.503Z,980.76
2018-02-11T12:02:18.477Z,980.82
2018-02-11T12:03:18.534Z,980.89
2018-02-11T12:04:18.540Z,980.88
2018-02-11T12:05:18.639Z,980.91
2018-02-11T12:06:18.625Z,980.96
2018-02-11T12:08:18.661Z,981.05
2018-02-11T12:09:18.698Z,980.96
2018-02-11T12:10:18.831Z,980.91
2018-02-11T12:11:18.756Z,980.94
2018-02-11T12:12:18.850Z,980.95
2018-02-11T12:13:18.816Z,980.90
2018-02-11T12:14:19.051Z,980.91
2018-02-11T12:15:18.879Z,980.92
2018-02-11T12:16:18.910Z,980.92
2018-02-11T12:17:19.275Z,980.94
2018-02-11T12:18:18.991Z,980.94
2018-02-11T12:19:19.006Z,980.90
2018-02-11T12:20:19.037Z,980.90
2018-02-11T12:21:19.067Z,980.92
2018-02-11T12:22:19.097Z,980.93
2018-02-11T12:23:19.129Z,980.85
2018-02-11T12:24:19.168Z,980.80
2018-02-11T12:25:19.190Z,980.78
2018-02-11T12:26:19.225Z,980.68
2018-02-11T12:27:19.477Z,980.69
2018-02-11T12:28:19.290Z,980.69
2018-02-11T12:29:19.313Z,980.69
2018-02-11T12:30:19.349Z,980.68
2018-02-11T12:31:19.377Z,980.68
2018-02-11T12:32:19.410Z,980.65
2018-02-11T12:33:19.453Z,980.62
2018-02-11T12:34:19.573Z,980.61
2018-02-11T12:35:19.504Z,980.62
2018-02-11T12:36:19.534Z,980.57
2018-02-11T12:37:19.604Z,980.63